Terminal Aerodrome Forecast
Issued by NWS Corpus Christi, TX

Home | Current Version | Previous Version | Text Only | Print | Product List | Glossary On
Versions: 1 2 3 4 5 6 7 8 9 10 11 12 13 14 15 16 17 18 19 20
000
FTUS44 KCRP 200500
TAFCRP
TAF
KCRP 200539Z 2006/2106 13009KT P6SM SCT015 BKN080 OVC250
     FM200900 14005KT P6SM OVC015
      TEMPO 2010/2014 6SM BR OVC009
     FM201500 15015G22KT P6SM OVC015
     FM201800 14018G25KT P6SM SCT030 BKN035
     FM210300 12015KT P6SM SCT020 BKN100=

USA.gov is the U.S. government's official web portal to all federal, state and local government web resources and services.